createdAt,value
2023-05-25T00:01:03.075Z,3.63
2023-05-25T00:03:32.144Z,3.70
2023-05-25T00:06:01.540Z,3.50
2023-05-25T00:08:29.437Z,3.50
2023-05-25T00:10:56.216Z,3.60
2023-05-25T00:13:22.963Z,3.40
2023-05-25T00:51:21.371Z,3.03
2023-05-25T00:53:48.054Z,3.47
2023-05-25T00:56:20.174Z,3.90
2023-05-25T00:58:51.761Z,3.63
2023-05-25T01:01:19.547Z,3.05
2023-05-25T01:03:53.697Z,3.70
2023-05-25T01:06:22.870Z,3.38
2023-05-25T01:08:52.693Z,3.80
2023-05-25T01:11:26.632Z,3.13
2023-05-25T01:13:56.684Z,3.47
2023-05-25T01:16:25.937Z,3.70
2023-05-25T01:18:53.747Z,3.08
2023-05-25T01:21:27.045Z,3.33
2023-05-25T01:24:04.551Z,3.97
2023-05-25T01:26:34.919Z,3.00
2023-05-25T01:29:02.265Z,3.50
2023-05-25T01:31:29.962Z,2.97
2023-05-25T01:33:57.141Z,3.47
2023-05-25T01:36:23.802Z,3.63
2023-05-25T01:38:51.385Z,3.17
2023-05-25T01:41:18.134Z,3.13
2023-05-25T01:43:45.324Z,3.13
2023-05-25T01:46:19.589Z,3.60
2023-05-25T01:48:53.249Z,3.63
2023-05-25T01:51:32.274Z,3.42
2023-05-25T01:54:05.855Z,3.60
2023-05-25T01:56:34.724Z,3.10
2023-05-25T01:59:03.262Z,3.38
2023-05-25T02:01:31.980Z,3.83
2023-05-25T02:03:59.560Z,3.40
2023-05-25T02:06:26.362Z,3.25
2023-05-25T02:08:53.032Z,3.22
2023-05-25T02:11:19.740Z,3.50
2023-05-25T02:13:46.476Z,4.03
2023-05-25T02:16:13.253Z,3.88
2023-05-25T02:18:40.011Z,4.05
2023-05-25T02:21:06.705Z,3.10
2023-05-25T02:23:33.448Z,3.45
2023-05-25T02:26:00.147Z,3.35
2023-05-25T02:28:27.036Z,3.90
2023-05-25T02:30:53.696Z,3.38
2023-05-25T02:33:20.452Z,3.40
2023-05-25T02:35:47.297Z,3.45
2023-05-25T02:38:14.103Z,4.10
2023-05-25T02:40:41.010Z,3.67
2023-05-25T02:43:07.869Z,3.17
2023-05-25T02:45:34.870Z,3.65
2023-05-25T02:48:01.623Z,4.15
2023-05-25T02:50:28.405Z,4.43
2023-05-25T02:52:55.076Z,4.15
2023-05-25T02:55:21.739Z,3.92
2023-05-25T02:57:48.505Z,3.75
2023-05-25T03:00:15.697Z,4.15
2023-05-25T03:02:42.415Z,3.90
2023-05-25T03:05:09.216Z,4.43
2023-05-25T03:07:35.988Z,4.20
2023-05-25T03:10:02.895Z,4.28
2023-05-25T03:12:29.559Z,4.70
2023-05-25T03:14:56.243Z,4.63
2023-05-25T03:17:22.938Z,4.82
2023-05-25T03:19:49.590Z,5.05
2023-05-25T03:22:16.311Z,4.65
2023-05-25T03:24:42.997Z,4.53
2023-05-25T03:27:09.794Z,4.63
2023-05-25T03:29:36.526Z,4.32
2023-05-25T03:32:03.296Z,4.47
2023-05-25T03:34:30.239Z,5.10
2023-05-25T03:36:57.013Z,4.40
2023-05-25T03:39:23.693Z,4.75
2023-05-25T03:41:51.236Z,5.18
2023-05-25T03:44:18.030Z,3.92
2023-05-25T03:46:44.829Z,4.30
2023-05-25T03:49:13.948Z,3.33
2023-05-25T03:51:41.432Z,4.00
2023-05-25T03:54:08.169Z,3.63
2023-05-25T03:56:34.979Z,3.90
2023-05-25T03:59:01.636Z,3.80
2023-05-25T04:01:30.009Z,4.03
2023-05-25T04:03:57.400Z,4.20
2023-05-25T04:06:25.493Z,4.40
2023-05-25T04:08:52.982Z,4.05
2023-05-25T04:11:20.097Z,4.00
2023-05-25T04:13:46.821Z,3.75
2023-05-25T04:16:13.592Z,3.60
2023-05-25T04:18:40.451Z,3.70
2023-05-25T04:21:07.106Z,4.45
2023-05-25T04:23:36.950Z,4.25
2023-05-25T04:26:03.824Z,3.80
2023-05-25T04:28:30.601Z,3.78
2023-05-25T04:30:57.457Z,4.22
2023-05-25T04:33:24.770Z,4.57
2023-05-25T04:35:51.516Z,4.70
2023-05-25T04:38:18.246Z,4.28
2023-05-25T04:40:47.543Z,4.50
2023-05-25T04:43:18.041Z,4.20
2023-05-25T04:45:45.930Z,5.13
2023-05-25T04:48:13.695Z,5.03
2023-05-25T04:50:40.591Z,4.60
2023-05-25T04:53:07.371Z,4.47
2023-05-25T04:55:34.074Z,5.15
2023-05-25T04:58:00.928Z,4.82
2023-05-25T05:00:28.281Z,4.65
2023-05-25T05:02:56.717Z,4.55
2023-05-25T05:05:23.612Z,4.55
2023-05-25T05:07:50.417Z,4.45
2023-05-25T05:10:17.799Z,4.20
2023-05-25T05:12:44.490Z,4.53
2023-05-25T05:15:11.572Z,4.40
2023-05-25T05:17:38.480Z,3.72
2023-05-25T05:20:08.552Z,4.47
2023-05-25T05:22:35.361Z,5.15
2023-05-25T05:25:02.164Z,5.55
2023-05-25T05:27:28.918Z,6.20
2023-05-25T05:29:55.875Z,5.55
2023-05-25T05:32:22.695Z,5.22
2023-05-25T05:34:49.708Z,5.03
2023-05-25T05:37:16.422Z,5.40
2023-05-25T05:39:43.149Z,5.30
2023-05-25T05:42:09.832Z,5.78
2023-05-25T05:44:37.024Z,6.15
2023-05-25T05:47:03.820Z,6.85
2023-05-25T05:49:31.450Z,6.38
2023-05-25T05:51:58.553Z,6.60
2023-05-25T05:54:25.353Z,6.43
2023-05-25T05:56:52.183Z,6.90
2023-05-25T05:59:18.948Z,7.15
2023-05-25T06:01:45.676Z,6.65
2023-05-25T06:04:12.575Z,6.70
2023-05-25T06:06:40.612Z,7.13
2023-05-25T06:09:07.320Z,6.65
2023-05-25T06:11:37.351Z,7.63
2023-05-25T06:14:04.607Z,7.43
2023-05-25T06:16:31.438Z,6.40
2023-05-25T06:18:58.319Z,6.78
2023-05-25T06:21:25.061Z,7.00
2023-05-25T06:23:51.800Z,5.95
2023-05-25T06:26:18.493Z,7.10
2023-05-25T06:28:46.892Z,6.97
2023-05-25T06:31:13.635Z,7.32
2023-05-25T06:33:40.333Z,7.13
2023-05-25T06:36:07.651Z,7.55
2023-05-25T06:38:34.430Z,6.65
2023-05-25T06:41:03.373Z,7.45
2023-05-25T06:43:30.406Z,6.28
2023-05-25T06:45:57.092Z,7.13
2023-05-25T06:48:24.222Z,6.40
2023-05-25T06:50:50.963Z,5.68
2023-05-25T06:53:17.846Z,5.72
2023-05-25T06:55:44.881Z,5.93
2023-05-25T06:58:11.738Z,6.20
2023-05-25T07:00:38.581Z,5.97
2023-05-25T07:03:05.340Z,6.35
2023-05-25T07:05:32.074Z,5.25
2023-05-25T07:07:58.803Z,4.95
2023-05-25T07:10:25.643Z,4.78
2023-05-25T07:12:52.514Z,5.45
2023-05-25T07:15:21.488Z,5.57
2023-05-25T07:17:48.421Z,5.07
2023-05-25T07:20:15.263Z,4.18
2023-05-25T07:22:43.495Z,5.15
2023-05-25T07:25:10.227Z,3.58
2023-05-25T07:27:37.019Z,4.13
2023-05-25T07:30:04.596Z,4.30
2023-05-25T07:32:31.335Z,3.63
2023-05-25T07:34:58.090Z,4.80
2023-05-25T07:37:24.772Z,4.60
2023-05-25T07:39:51.563Z,3.45
2023-05-25T07:42:21.731Z,3.78
2023-05-25T07:44:51.600Z,3.75
2023-05-25T07:47:18.264Z,3.88
2023-05-25T07:49:45.002Z,4.40
2023-05-25T07:52:12.276Z,4.95
2023-05-25T07:54:40.254Z,4.38
2023-05-25T07:57:07.946Z,4.25
2023-05-25T07:59:35.284Z,4.72
2023-05-25T08:02:02.575Z,4.70
2023-05-25T08:04:31.005Z,4.45
2023-05-25T08:06:57.772Z,5.65
2023-05-25T08:09:24.462Z,5.13
2023-05-25T08:11:51.086Z,5.10
2023-05-25T08:14:17.798Z,4.97
2023-05-25T08:16:44.533Z,4.60
2023-05-25T08:19:11.301Z,4.03
2023-05-25T08:21:39.674Z,3.83
2023-05-25T08:24:08.331Z,3.30
2023-05-25T08:26:53.136Z,3.40
2023-05-25T08:29:21.332Z,3.78
2023-05-25T08:31:49.664Z,4.13
2023-05-25T08:34:17.019Z,3.28
2023-05-25T08:36:44.732Z,3.75
2023-05-25T08:39:11.721Z,3.25
2023-05-25T08:41:43.065Z,3.70
2023-05-25T08:44:10.907Z,3.63
2023-05-25T08:46:37.671Z,3.13
2023-05-25T08:49:11.527Z,3.67
2023-05-25T08:51:42.256Z,3.70
2023-05-25T08:54:12.007Z,3.55
2023-05-25T08:56:55.055Z,3.58
2023-05-25T08:59:44.493Z,3.20
2023-05-25T09:02:26.327Z,3.17
2023-05-25T09:04:53.231Z,3.17
2023-05-25T09:07:20.958Z,3.60
2023-05-25T09:09:48.326Z,3.38
2023-05-25T09:12:16.129Z,2.95
2023-05-25T09:14:47.676Z,3.17
2023-05-25T09:19:42.387Z,3.25
2023-05-25T09:22:16.733Z,3.50
2023-05-25T09:24:45.278Z,3.80
2023-05-25T09:27:13.752Z,3.35
2023-05-25T09:29:40.935Z,2.95
2023-05-25T09:32:07.911Z,3.03
2023-05-25T09:34:35.513Z,3.47
2023-05-25T09:37:17.293Z,3.28
2023-05-25T09:39:44.764Z,4.15
2023-05-25T09:42:12.051Z,3.28
2023-05-25T09:44:39.680Z,3.35
2023-05-25T09:47:06.589Z,3.50
2023-05-25T09:49:33.487Z,3.25
2023-05-25T09:52:00.711Z,3.50
2023-05-25T09:54:27.615Z,3.00
2023-05-25T09:56:54.550Z,3.22
2023-05-25T09:59:23.178Z,3.17
2023-05-25T10:01:53.078Z,2.63
2023-05-25T10:04:20.093Z,3.30
2023-05-25T10:06:51.550Z,3.47
2023-05-25T10:11:46.688Z,3.33
2023-05-25T10:14:22.794Z,2.65
2023-05-25T10:16:53.964Z,3.28
2023-05-25T10:19:28.519Z,3.70
2023-05-25T10:22:05.552Z,3.70
2023-05-25T10:24:38.785Z,3.40
2023-05-25T10:27:22.415Z,4.25
2023-05-25T10:29:59.783Z,3.13
2023-05-25T10:32:28.228Z,4.25
2023-05-25T10:34:56.812Z,3.70
2023-05-25T10:37:26.158Z,4.10
2023-05-25T10:39:54.356Z,3.63
2023-05-25T10:42:21.003Z,3.67
2023-05-25T10:44:48.212Z,4.13
2023-05-25T10:47:16.222Z,4.13
2023-05-25T10:49:53.554Z,3.97
2023-05-25T10:52:20.615Z,3.70
2023-05-25T10:54:55.895Z,3.40
2023-05-25T10:57:24.033Z,4.10
2023-05-25T10:59:52.282Z,3.33
2023-05-25T11:02:24.983Z,2.95
2023-05-25T11:05:26.606Z,2.80
2023-05-25T11:07:56.977Z,3.42
2023-05-25T11:10:58.808Z,3.80
2023-05-25T11:13:31.388Z,3.15
2023-05-25T11:16:17.969Z,4.22
2023-05-25T11:18:49.530Z,3.75
2023-05-25T11:21:40.487Z,4.35
2023-05-25T11:24:15.836Z,3.88
2023-05-25T11:26:58.429Z,4.20
2023-05-25T11:29:27.245Z,3.60
2023-05-25T11:31:55.627Z,4.20
2023-05-25T11:34:27.986Z,4.35
2023-05-25T11:37:01.860Z,3.88
2023-05-25T11:39:32.389Z,3.70
2023-05-25T11:42:04.300Z,2.95
2023-05-25T11:44:36.586Z,3.30
2023-05-25T11:47:08.792Z,3.40
2023-05-25T11:49:44.202Z,2.85
2023-05-25T11:52:11.012Z,3.42
2023-05-25T11:54:41.138Z,3.95
2023-05-25T11:57:19.915Z,3.75
2023-05-25T11:59:54.887Z,3.38
2023-05-25T12:02:22.817Z,2.88
2023-05-25T12:04:56.421Z,2.63
2023-05-25T12:07:24.310Z,3.00
2023-05-25T12:09:50.999Z,2.88
2023-05-25T12:12:17.846Z,2.53
2023-05-25T12:14:49.159Z,2.42
2023-05-25T12:17:17.427Z,2.53
2023-05-25T12:19:44.825Z,2.70
2023-05-25T12:22:12.863Z,2.50
2023-05-25T12:24:41.036Z,3.03
2023-05-25T12:27:18.032Z,2.55
2023-05-25T12:29:48.428Z,3.28
2023-05-25T12:32:15.829Z,3.28
2023-05-25T12:34:43.070Z,3.15
2023-05-25T12:37:22.487Z,3.40
2023-05-25T12:39:50.601Z,3.42
2023-05-25T12:42:17.515Z,2.83
2023-05-25T12:44:46.491Z,3.20
2023-05-25T12:47:14.645Z,2.72
2023-05-25T12:49:44.233Z,3.33
2023-05-25T12:52:12.100Z,2.58
2023-05-25T12:54:45.854Z,3.10
2023-05-25T12:57:17.585Z,2.83
2023-05-25T12:59:46.188Z,2.85
2023-05-25T13:02:14.901Z,2.70
2023-05-25T13:04:42.111Z,3.10
2023-05-25T13:07:09.845Z,3.53
2023-05-25T13:09:36.998Z,3.30
2023-05-25T13:12:04.549Z,2.97
2023-05-25T13:14:31.266Z,4.18
2023-05-25T13:16:58.049Z,3.58
2023-05-25T13:19:26.033Z,4.30
2023-05-25T13:21:53.217Z,3.58
2023-05-25T13:24:20.401Z,3.75
2023-05-25T13:26:49.988Z,3.63
2023-05-25T13:29:17.751Z,4.03
2023-05-25T13:31:44.802Z,3.95
2023-05-25T13:34:11.742Z,4.10
2023-05-25T13:36:38.610Z,3.53
2023-05-25T13:39:05.402Z,3.28
2023-05-25T13:41:32.258Z,4.00
2023-05-25T13:43:59.014Z,4.03
2023-05-25T13:46:34.144Z,4.50
2023-05-25T13:49:02.084Z,3.83
2023-05-25T13:51:28.779Z,3.85
2023-05-25T13:53:55.591Z,4.35
2023-05-25T13:56:22.515Z,3.95
2023-05-25T13:58:49.265Z,4.05
2023-05-25T14:01:16.038Z,3.72
2023-05-25T14:03:43.218Z,3.85
2023-05-25T14:06:10.044Z,4.18
2023-05-25T14:08:36.698Z,4.55
2023-05-25T14:11:03.397Z,4.78
2023-05-25T14:13:30.214Z,4.57
2023-05-25T14:15:57.099Z,4.50
2023-05-25T14:18:23.840Z,5.18
2023-05-25T14:20:50.750Z,4.18
2023-05-25T14:23:19.130Z,5.07
2023-05-25T14:25:47.022Z,4.22
2023-05-25T14:28:14.231Z,4.72
2023-05-25T14:30:40.945Z,4.30
2023-05-25T14:33:07.758Z,4.22
2023-05-25T14:35:34.597Z,4.20
2023-05-25T14:38:01.288Z,4.78
2023-05-25T14:40:27.994Z,4.97
2023-05-25T14:42:55.511Z,4.50
2023-05-25T14:45:22.317Z,4.28
2023-05-25T14:47:49.723Z,3.95
2023-05-25T14:50:17.452Z,4.85
2023-05-25T14:52:44.106Z,4.88
2023-05-25T14:55:10.939Z,3.80
2023-05-25T14:57:37.886Z,4.78
2023-05-25T15:00:05.023Z,4.78
2023-05-25T15:02:31.827Z,4.97
2023-05-25T15:04:58.737Z,3.80
2023-05-25T15:07:25.423Z,4.30
2023-05-25T15:09:52.162Z,4.47
2023-05-25T15:12:18.885Z,4.38
2023-05-25T15:14:45.594Z,4.68
2023-05-25T15:17:12.288Z,3.92
2023-05-25T15:19:38.951Z,5.05
2023-05-25T15:22:05.638Z,4.88
2023-05-25T15:24:32.326Z,4.22
2023-05-25T15:26:59.073Z,4.05
2023-05-25T15:29:26.317Z,4.13
2023-05-25T15:31:53.654Z,4.90
2023-05-25T15:34:21.040Z,4.18
2023-05-25T15:36:47.712Z,3.88
2023-05-25T15:39:15.346Z,3.97
2023-05-25T15:41:43.068Z,4.40
2023-05-25T15:44:12.617Z,4.32
2023-05-25T15:46:40.672Z,3.63
2023-05-25T15:49:11.376Z,4.38
2023-05-25T15:51:41.589Z,5.40
2023-05-25T15:54:11.971Z,4.18
2023-05-25T15:56:40.713Z,4.47
2023-05-25T15:59:07.429Z,4.05
2023-05-25T16:01:35.658Z,5.20
2023-05-25T16:04:03.726Z,4.53
2023-05-25T16:06:31.053Z,4.30
2023-05-25T16:08:59.070Z,5.15
2023-05-25T16:11:31.699Z,5.10
2023-05-25T16:13:58.325Z,4.38
2023-05-25T16:16:25.091Z,4.50
2023-05-25T16:18:51.873Z,4.38
2023-05-25T16:21:18.608Z,5.00
2023-05-25T16:23:45.364Z,5.28
2023-05-25T16:26:12.072Z,4.68
2023-05-25T16:28:39.332Z,3.97
2023-05-25T16:31:06.613Z,4.55
2023-05-25T16:33:33.834Z,4.00
2023-05-25T16:36:01.020Z,5.13
2023-05-25T16:38:27.757Z,5.10
2023-05-25T16:40:54.435Z,4.90
2023-05-25T16:43:23.163Z,4.63
2023-05-25T16:45:49.912Z,4.43
2023-05-25T16:48:16.719Z,5.10
2023-05-25T16:50:43.392Z,5.35
2023-05-25T16:53:10.094Z,4.30
2023-05-25T16:55:37.773Z,4.70
2023-05-25T16:58:04.454Z,4.40
2023-05-25T17:00:31.181Z,4.25
2023-05-25T17:02:58.004Z,5.63
2023-05-25T17:05:24.910Z,4.82
2023-05-25T17:07:51.650Z,5.15
2023-05-25T17:10:18.435Z,5.13
2023-05-25T17:12:45.123Z,4.38
2023-05-25T17:15:13.967Z,4.43
2023-05-25T17:17:41.302Z,5.70
2023-05-25T17:20:08.432Z,5.53
2023-05-25T17:22:35.132Z,4.55
2023-05-25T17:25:01.924Z,5.10
2023-05-25T17:27:28.663Z,5.15
2023-05-25T17:29:55.344Z,4.13
2023-05-25T17:32:22.090Z,4.40
2023-05-25T17:34:48.874Z,4.40
2023-05-25T17:37:15.602Z,5.07
2023-05-25T17:39:42.662Z,6.63
2023-05-25T17:42:10.348Z,4.30
2023-05-25T17:44:40.207Z,4.97
2023-05-25T17:47:09.161Z,5.30
2023-05-25T17:49:37.510Z,4.95
2023-05-25T17:52:04.247Z,5.32
2023-05-25T17:54:30.957Z,5.47
2023-05-25T17:56:57.634Z,4.53
2023-05-25T17:59:25.405Z,4.93
2023-05-25T18:01:52.122Z,5.05
2023-05-25T18:04:19.721Z,4.85
2023-05-25T18:06:51.832Z,4.50
2023-05-25T18:09:19.437Z,4.55
2023-05-25T18:11:46.501Z,4.53
2023-05-25T18:14:13.736Z,4.30
2023-05-25T18:16:41.600Z,4.85
2023-05-25T18:19:09.486Z,5.72
2023-05-25T18:21:40.092Z,3.78
2023-05-25T18:24:08.405Z,4.85
2023-05-25T18:26:36.024Z,4.65
2023-05-25T18:29:02.773Z,4.80
2023-05-25T18:31:31.984Z,4.97
2023-05-25T18:33:59.591Z,5.20
2023-05-25T18:36:26.492Z,4.60
2023-05-25T18:38:53.198Z,4.47
2023-05-25T18:41:21.583Z,5.07
2023-05-25T18:43:49.143Z,5.22
2023-05-25T18:46:16.613Z,4.72
2023-05-25T18:48:43.427Z,4.40
2023-05-25T18:51:10.442Z,4.53
2023-05-25T18:53:37.209Z,4.78
2023-05-25T18:56:03.923Z,4.95
2023-05-25T18:58:31.101Z,4.72
2023-05-25T19:00:57.795Z,5.90
2023-05-25T19:03:24.581Z,4.82
2023-05-25T19:05:51.369Z,5.15
2023-05-25T19:08:18.125Z,5.28
2023-05-25T19:10:44.759Z,5.22
2023-05-25T19:13:11.516Z,5.00
2023-05-25T19:15:38.190Z,5.68
2023-05-25T19:18:05.755Z,4.90
2023-05-25T19:20:32.821Z,5.47
2023-05-25T19:22:59.956Z,4.88
2023-05-25T19:25:26.674Z,4.78
2023-05-25T19:27:53.615Z,4.95
2023-05-25T19:30:20.397Z,5.63
2023-05-25T19:32:47.157Z,5.03
2023-05-25T19:35:13.884Z,5.20
2023-05-25T19:37:43.584Z,4.57
2023-05-25T19:40:11.149Z,4.93
2023-05-25T19:42:37.991Z,5.18
2023-05-25T19:45:05.631Z,4.30
2023-05-25T19:47:32.440Z,4.93
2023-05-25T19:49:59.154Z,4.20
2023-05-25T19:52:25.846Z,5.18
2023-05-25T19:54:52.538Z,5.93
2023-05-25T19:57:20.057Z,4.45
2023-05-25T19:59:47.037Z,5.38
2023-05-25T20:02:13.764Z,5.10
2023-05-25T20:04:41.429Z,5.82
2023-05-25T20:07:08.224Z,5.40
2023-05-25T20:09:35.679Z,4.50
2023-05-25T20:12:02.453Z,4.45
2023-05-25T20:14:30.358Z,4.47
2023-05-25T20:16:57.525Z,4.82
2023-05-25T20:19:24.243Z,4.25
2023-05-25T20:21:51.550Z,4.47
2023-05-25T20:24:18.384Z,4.53
2023-05-25T20:26:45.208Z,5.38
2023-05-25T20:29:11.993Z,4.53
2023-05-25T20:31:38.787Z,4.10
2023-05-25T20:34:06.358Z,4.47
2023-05-25T20:36:33.098Z,4.60
2023-05-25T20:38:59.933Z,4.30
2023-05-25T20:41:26.564Z,4.43
2023-05-25T20:43:53.309Z,4.80
2023-05-25T20:46:20.087Z,4.60
2023-05-25T20:48:46.868Z,5.07
2023-05-25T20:51:14.306Z,4.65
2023-05-25T20:53:41.184Z,4.65
2023-05-25T20:56:07.849Z,4.13
2023-05-25T20:58:34.691Z,5.00
2023-05-25T21:01:01.672Z,4.38
2023-05-25T21:03:28.493Z,5.05
2023-05-25T21:05:55.168Z,4.55
2023-05-25T21:08:23.729Z,5.38
2023-05-25T21:10:50.425Z,4.50
2023-05-25T21:13:17.088Z,4.75
2023-05-25T21:15:44.031Z,4.93
2023-05-25T21:18:10.963Z,4.18
2023-05-25T21:20:38.513Z,4.68
2023-05-25T21:23:05.383Z,4.65
2023-05-25T21:25:32.099Z,5.10
2023-05-25T21:27:58.816Z,4.72
2023-05-25T21:30:25.632Z,5.20
2023-05-25T21:32:52.663Z,4.38
2023-05-25T21:35:19.503Z,5.03
2023-05-25T21:37:46.171Z,4.80
2023-05-25T21:40:13.379Z,4.07
2023-05-25T21:42:40.081Z,4.68
2023-05-25T21:45:07.265Z,4.68
2023-05-25T21:47:34.067Z,4.57
2023-05-25T21:50:00.850Z,5.30
2023-05-25T21:52:27.544Z,5.35
2023-05-25T21:54:54.241Z,4.32
2023-05-25T21:57:20.996Z,4.28
2023-05-25T21:59:47.658Z,4.90
2023-05-25T22:02:14.430Z,4.88
2023-05-25T22:04:41.149Z,4.20
2023-05-25T22:07:08.286Z,4.50
2023-05-25T22:09:35.021Z,5.82
2023-05-25T22:12:02.265Z,4.80
2023-05-25T22:14:29.007Z,4.03
2023-05-25T22:16:55.794Z,4.47
2023-05-25T22:19:22.535Z,4.60
2023-05-25T22:21:49.175Z,5.28
2023-05-25T22:24:15.852Z,5.13
2023-05-25T22:26:42.524Z,5.18
2023-05-25T22:29:09.226Z,5.30
2023-05-25T22:31:35.969Z,4.47
2023-05-25T22:34:02.824Z,4.70
2023-05-25T22:36:29.606Z,4.63
2023-05-25T22:38:56.390Z,4.88
2023-05-25T22:41:23.099Z,4.22
2023-05-25T22:43:49.788Z,4.00
2023-05-25T22:46:16.615Z,4.07
2023-05-25T22:48:43.476Z,4.47
2023-05-25T22:51:10.208Z,4.47
2023-05-25T22:53:36.947Z,4.75
2023-05-25T22:56:04.070Z,4.38
2023-05-25T22:58:30.782Z,3.80
2023-05-25T23:00:57.611Z,4.97
2023-05-25T23:03:24.392Z,4.10
2023-05-25T23:05:51.159Z,4.72
2023-05-25T23:08:17.864Z,4.57
2023-05-25T23:10:44.552Z,4.43
2023-05-25T23:13:11.246Z,4.78
2023-05-25T23:15:39.724Z,3.92
2023-05-25T23:18:06.932Z,4.63
2023-05-25T23:20:35.522Z,4.47
2023-05-25T23:23:02.329Z,3.78
2023-05-25T23:25:29.084Z,5.65
2023-05-25T23:27:55.911Z,3.97
2023-05-25T23:30:23.451Z,4.03
2023-05-25T23:32:50.247Z,4.25
2023-05-25T23:35:17.002Z,4.95
2023-05-25T23:37:43.981Z,4.53
2023-05-25T23:40:12.021Z,4.47
2023-05-25T23:42:39.978Z,4.28
2023-05-25T23:45:08.234Z,4.80
2023-05-25T23:47:35.101Z,5.00
2023-05-25T23:50:02.362Z,4.55
2023-05-25T23:52:29.136Z,4.53
2023-05-25T23:54:55.856Z,4.90
2023-05-25T23:57:22.539Z,4.43
2023-05-25T23:59:49.175Z,5.38
